createdAt,value
2022-12-28T00:00:48.748Z,12.20
2022-12-28T00:01:50.600Z,9.80
2022-12-28T00:02:53.442Z,11.45
2022-12-28T00:03:56.138Z,11.80
2022-12-28T00:05:00.121Z,10.75
2022-12-28T00:06:02.195Z,10.15
2022-12-28T00:07:05.050Z,10.95
2022-12-28T00:08:07.251Z,10.93
2022-12-28T00:09:12.022Z,11.18
2022-12-28T00:10:13.963Z,10.23
2022-12-28T00:11:26.512Z,10.00
2022-12-28T00:12:33.084Z,10.82
2022-12-28T00:13:35.888Z,9.75
2022-12-28T00:14:38.711Z,10.27
2022-12-28T00:15:40.510Z,10.43
2022-12-28T00:16:45.314Z,11.63
2022-12-28T00:17:47.088Z,11.00
2022-12-28T00:18:49.852Z,11.07
2022-12-28T00:19:52.709Z,9.50
2022-12-28T00:20:58.135Z,10.25
2022-12-28T00:22:00.987Z,10.52
2022-12-28T00:23:04.993Z,11.07
2022-12-28T00:24:08.607Z,10.85
2022-12-28T00:25:10.696Z,9.82
2022-12-28T00:26:14.723Z,9.90
2022-12-28T00:27:17.556Z,9.77
2022-12-28T00:28:19.848Z,10.32
2022-12-28T00:29:23.073Z,10.32
2022-12-28T00:30:25.143Z,10.82
2022-12-28T00:31:28.026Z,9.93
2022-12-28T00:32:32.219Z,10.40
2022-12-28T00:33:35.064Z,10.38
2022-12-28T00:34:36.899Z,9.30
2022-12-28T00:35:43.301Z,10.38
2022-12-28T00:37:08.484Z,10.38
2022-12-28T00:38:07.802Z,10.30
2022-12-28T00:39:10.622Z,8.82
2022-12-28T00:40:16.442Z,9.95
2022-12-28T00:41:23.221Z,9.55
2022-12-28T00:42:26.074Z,9.35
2022-12-28T00:43:28.217Z,9.82
2022-12-28T00:44:31.146Z,10.00
2022-12-28T00:45:35.900Z,9.48
2022-12-28T00:46:38.735Z,9.57
2022-12-28T00:47:41.940Z,9.00
2022-12-28T00:48:44.994Z,9.82
2022-12-28T00:49:46.895Z,9.55
2022-12-28T00:50:49.756Z,9.68
2022-12-28T00:51:51.670Z,8.75
2022-12-28T00:52:54.417Z,9.38
2022-12-28T00:53:56.306Z,8.80
2022-12-28T00:54:59.407Z,9.65
2022-12-28T00:56:05.986Z,9.65
2022-12-28T00:57:08.813Z,9.57
2022-12-28T00:58:10.811Z,9.65
2022-12-28T00:59:13.657Z,9.82
2022-12-28T01:00:16.470Z,9.52
2022-12-28T01:01:21.964Z,9.55
2022-12-28T01:02:25.535Z,9.15
2022-12-28T01:03:29.705Z,9.35
2022-12-28T01:04:32.952Z,9.02
2022-12-28T01:05:35.716Z,9.60
2022-12-28T01:06:37.454Z,9.15
2022-12-28T01:07:40.568Z,8.65
2022-12-28T01:08:42.735Z,9.68
2022-12-28T01:09:47.095Z,9.60
2022-12-28T01:10:49.240Z,9.13
2022-12-28T01:11:52.062Z,9.20
2022-12-28T01:12:54.342Z,9.43
2022-12-28T01:13:58.443Z,9.63
2022-12-28T01:15:00.241Z,9.82
2022-12-28T01:16:11.473Z,9.43
2022-12-28T01:17:14.798Z,9.25
2022-12-28T01:18:18.553Z,10.45
2022-12-28T01:19:23.930Z,9.82
2022-12-28T01:20:25.869Z,8.20
2022-12-28T01:21:31.054Z,8.75
2022-12-28T01:22:32.960Z,9.88
2022-12-28T01:23:35.806Z,10.32
2022-12-28T01:24:37.629Z,11.15
2022-12-28T01:25:40.645Z,9.15
2022-12-28T01:26:42.552Z,9.85
2022-12-28T01:27:45.331Z,8.85
2022-12-28T01:28:47.373Z,9.38
2022-12-28T01:29:50.591Z,9.35
2022-12-28T01:30:52.411Z,9.52
2022-12-28T01:31:55.985Z,9.65
2022-12-28T01:32:59.089Z,9.18
2022-12-28T01:34:02.173Z,10.52
2022-12-28T01:35:06.487Z,9.60
2022-12-28T01:36:12.223Z,9.23
2022-12-28T01:37:14.027Z,9.90
2022-12-28T01:38:16.816Z,10.07
2022-12-28T01:39:18.827Z,9.02
2022-12-28T01:40:21.623Z,9.27
2022-12-28T01:41:24.010Z,10.02
2022-12-28T01:42:27.141Z,9.23
2022-12-28T01:43:38.001Z,9.45
2022-12-28T01:44:46.547Z,9.23
2022-12-28T01:45:51.583Z,9.60
2022-12-28T01:46:56.422Z,9.52
2022-12-28T01:47:58.291Z,8.98
2022-12-28T01:49:04.487Z,9.40
2022-12-28T01:50:11.910Z,9.48
2022-12-28T01:51:15.550Z,9.30
2022-12-28T01:52:21.328Z,9.45
2022-12-28T01:53:25.280Z,9.40
2022-12-28T01:54:33.489Z,9.32
2022-12-28T01:55:37.355Z,9.98
2022-12-28T01:56:39.780Z,9.00
2022-12-28T01:57:45.413Z,9.20
2022-12-28T01:58:48.264Z,9.65
2022-12-28T01:59:54.403Z,9.77
2022-12-28T02:00:56.342Z,9.93
2022-12-28T02:01:59.617Z,9.75
2022-12-28T02:03:04.734Z,9.27
2022-12-28T02:04:07.588Z,9.43
2022-12-28T02:05:11.555Z,9.82
2022-12-28T02:06:15.044Z,9.68
2022-12-28T02:07:20.028Z,9.68
2022-12-28T02:08:25.369Z,9.15
2022-12-28T02:09:30.723Z,9.30
2022-12-28T02:10:43.778Z,9.10
2022-12-28T02:11:48.618Z,9.02
2022-12-28T02:12:52.303Z,8.93
2022-12-28T02:13:56.068Z,9.57
2022-12-28T02:14:59.279Z,8.98
2022-12-28T02:16:02.116Z,9.60
2022-12-28T02:17:04.086Z,9.25
2022-12-28T02:18:07.993Z,8.52
2022-12-28T02:19:14.344Z,10.57
2022-12-28T02:20:20.082Z,9.77
2022-12-28T02:21:26.254Z,9.27
2022-12-28T02:23:07.489Z,8.95
2022-12-28T02:24:47.423Z,9.55
2022-12-28T02:26:27.637Z,10.25
2022-12-28T02:27:37.071Z,9.85
2022-12-28T02:29:26.772Z,10.05
2022-12-28T02:30:31.935Z,9.35
2022-12-28T02:31:37.249Z,8.65
2022-12-28T02:32:53.380Z,10.35
2022-12-28T02:33:59.456Z,10.05
2022-12-28T02:35:08.302Z,10.55
2022-12-28T02:36:18.335Z,10.30
2022-12-28T02:37:24.676Z,10.00
2022-12-28T02:38:28.879Z,11.02
2022-12-28T02:39:36.561Z,9.93
2022-12-28T02:40:43.927Z,10.43
2022-12-28T02:41:47.086Z,11.05
2022-12-28T02:42:52.051Z,10.55
2022-12-28T02:43:54.706Z,11.15
2022-12-28T02:45:15.490Z,11.00
2022-12-28T02:46:39.110Z,10.20
2022-12-28T02:48:00.810Z,9.93
2022-12-28T02:49:36.178Z,10.43
2022-12-28T02:50:47.013Z,9.75
2022-12-28T02:51:58.750Z,9.52
2022-12-28T02:53:18.501Z,10.18
2022-12-28T02:55:04.279Z,10.45
2022-12-28T02:56:16.091Z,10.90
2022-12-28T02:57:32.075Z,10.00
2022-12-28T02:59:12.617Z,10.52
2022-12-28T03:00:16.843Z,10.40
2022-12-28T03:01:33.544Z,10.13
2022-12-28T03:02:46.984Z,11.25
2022-12-28T03:04:04.190Z,11.48
2022-12-28T03:05:11.438Z,11.90
2022-12-28T03:06:34.398Z,11.25
2022-12-28T03:08:00.852Z,12.00
2022-12-28T03:09:07.391Z,11.55
2022-12-28T03:10:13.005Z,10.63
2022-12-28T03:11:18.668Z,12.77
2022-12-28T03:12:26.610Z,11.48
2022-12-28T03:13:45.559Z,12.88
2022-12-28T03:14:58.689Z,11.75
2022-12-28T03:16:07.144Z,11.88
2022-12-28T03:17:29.596Z,13.10
2022-12-28T03:18:51.184Z,12.85
2022-12-28T03:20:16.087Z,12.73
2022-12-28T03:21:37.108Z,15.23
2022-12-28T03:23:02.038Z,14.25
2022-12-28T03:24:23.840Z,14.68
2022-12-28T03:25:46.589Z,13.75
2022-12-28T03:27:09.948Z,14.88
2022-12-28T03:28:42.834Z,14.73
2022-12-28T03:30:07.880Z,17.35
2022-12-28T03:31:15.060Z,15.70
2022-12-28T03:32:23.681Z,16.15
2022-12-28T03:33:26.512Z,13.05
2022-12-28T03:34:28.559Z,11.85
2022-12-28T03:35:38.858Z,12.80
2022-12-28T03:36:44.813Z,13.77
2022-12-28T03:37:52.550Z,13.65
2022-12-28T03:39:00.879Z,13.25
2022-12-28T03:40:11.363Z,14.48
2022-12-28T03:41:15.205Z,12.40
2022-12-28T03:42:44.597Z,12.93
2022-12-28T03:43:50.316Z,12.98
2022-12-28T03:44:55.574Z,11.40
2022-12-28T03:46:04.859Z,12.18
2022-12-28T03:47:09.124Z,11.32
2022-12-28T03:48:14.060Z,11.82
2022-12-28T03:49:17.359Z,12.07
2022-12-28T03:50:19.850Z,12.60
2022-12-28T03:51:24.960Z,12.80
2022-12-28T03:52:29.025Z,13.55
2022-12-28T03:53:39.607Z,11.90
2022-12-28T03:54:45.505Z,12.68
2022-12-28T03:55:51.042Z,12.57
2022-12-28T03:56:54.898Z,12.35
2022-12-28T03:58:03.006Z,11.75
2022-12-28T03:59:06.659Z,12.30
2022-12-28T04:00:15.222Z,12.13
2022-12-28T04:01:22.958Z,11.50
2022-12-28T04:02:25.292Z,11.57
2022-12-28T04:03:29.554Z,11.95
2022-12-28T04:04:31.434Z,12.43
2022-12-28T04:05:34.236Z,11.88
2022-12-28T04:06:36.129Z,11.25
2022-12-28T04:07:39.070Z,11.77
2022-12-28T04:08:41.851Z,11.00
2022-12-28T04:09:44.619Z,12.20
2022-12-28T04:10:47.135Z,11.88
2022-12-28T04:11:50.111Z,12.35
2022-12-28T04:13:00.222Z,11.40
2022-12-28T04:14:20.490Z,9.77
2022-12-28T04:15:23.855Z,10.55
2022-12-28T04:16:27.402Z,10.48
2022-12-28T04:17:29.778Z,10.52
2022-12-28T04:18:34.630Z,11.10
2022-12-28T04:19:36.546Z,11.40
2022-12-28T04:20:39.557Z,10.32
2022-12-28T04:21:41.483Z,9.80
2022-12-28T04:22:44.599Z,9.32
2022-12-28T04:23:46.903Z,9.80
2022-12-28T04:24:52.456Z,10.07
2022-12-28T04:25:58.732Z,10.30
2022-12-28T04:27:01.985Z,10.07
2022-12-28T04:28:04.894Z,8.95
2022-12-28T04:29:28.524Z,9.27
2022-12-28T04:30:34.498Z,9.52
2022-12-28T04:31:37.434Z,9.63
2022-12-28T04:32:42.969Z,10.23
2022-12-28T04:33:47.248Z,10.10
2022-12-28T04:34:49.309Z,9.90
2022-12-28T04:35:54.551Z,10.02
2022-12-28T04:36:57.784Z,10.68
2022-12-28T04:37:59.631Z,10.45
2022-12-28T04:39:02.440Z,11.15
2022-12-28T04:40:05.164Z,12.00
2022-12-28T04:41:08.917Z,11.50
2022-12-28T04:42:10.671Z,11.45
2022-12-28T04:43:13.747Z,11.55
2022-12-28T04:44:15.622Z,12.10
2022-12-28T04:45:22.125Z,13.10
2022-12-28T04:46:25.019Z,14.23
2022-12-28T04:47:27.878Z,13.98
2022-12-28T04:48:30.110Z,13.82
2022-12-28T04:49:34.223Z,11.57
2022-12-28T04:50:36.747Z,12.23
2022-12-28T04:51:39.866Z,12.50
2022-12-28T04:52:42.514Z,12.95
2022-12-28T04:53:45.377Z,13.60
2022-12-28T04:54:47.132Z,12.05
2022-12-28T04:55:50.162Z,11.57
2022-12-28T04:56:52.017Z,13.05
2022-12-28T04:57:54.834Z,13.25
2022-12-28T04:58:59.923Z,12.98
2022-12-28T05:00:02.749Z,14.52
2022-12-28T05:01:05.511Z,14.02
2022-12-28T05:02:08.702Z,13.45
2022-12-28T05:03:10.561Z,12.30
2022-12-28T05:04:14.070Z,12.55
2022-12-28T05:05:17.463Z,13.88
2022-12-28T05:06:22.232Z,12.73
2022-12-28T05:07:24.023Z,11.98
2022-12-28T05:08:27.347Z,12.40
2022-12-28T05:09:29.120Z,12.38
2022-12-28T05:10:31.994Z,12.43
2022-12-28T05:11:33.895Z,13.25
2022-12-28T05:12:37.018Z,13.18
2022-12-28T05:13:38.888Z,13.02
2022-12-28T05:14:42.207Z,11.43
2022-12-28T05:15:44.024Z,13.05
2022-12-28T05:16:46.739Z,12.88
2022-12-28T05:17:48.601Z,14.02
2022-12-28T05:18:51.523Z,13.27
2022-12-28T05:19:53.356Z,13.60
2022-12-28T05:21:01.665Z,12.75
2022-12-28T05:22:03.676Z,11.98
2022-12-28T05:23:07.168Z,11.60
2022-12-28T05:24:09.364Z,12.07
2022-12-28T05:25:12.108Z,12.77
2022-12-28T05:26:16.507Z,12.10
2022-12-28T05:27:19.367Z,13.18
2022-12-28T05:28:21.193Z,13.73
2022-12-28T05:29:24.438Z,13.55
2022-12-28T05:30:26.657Z,12.55
2022-12-28T05:31:29.504Z,12.35
2022-12-28T05:32:31.336Z,13.55
2022-12-28T05:33:35.822Z,11.75
2022-12-28T05:34:37.730Z,11.73
2022-12-28T05:35:40.680Z,12.00
2022-12-28T05:36:44.151Z,12.13
2022-12-28T05:37:46.921Z,12.60
2022-12-28T05:38:48.770Z,11.77
2022-12-28T05:39:52.273Z,12.20
2022-12-28T05:40:54.414Z,12.07
2022-12-28T05:42:00.081Z,11.45
2022-12-28T05:43:21.201Z,12.10
2022-12-28T05:44:23.037Z,11.65
2022-12-28T05:45:25.849Z,11.18
2022-12-28T05:46:29.513Z,10.38
2022-12-28T05:47:32.375Z,10.90
2022-12-28T05:48:35.376Z,10.88
2022-12-28T05:49:38.176Z,12.82
2022-12-28T05:50:40.860Z,11.65
2022-12-28T05:51:44.991Z,12.18
2022-12-28T05:52:46.913Z,11.77
2022-12-28T05:53:49.946Z,11.50
2022-12-28T05:54:51.736Z,11.68
2022-12-28T05:55:54.736Z,12.18
2022-12-28T05:56:57.628Z,10.75
2022-12-28T05:57:59.392Z,10.40
2022-12-28T05:59:03.847Z,11.57
2022-12-28T06:00:07.214Z,10.70
2022-12-28T06:01:16.671Z,11.18
2022-12-28T06:02:24.396Z,10.93
2022-12-28T06:03:27.612Z,11.07
2022-12-28T06:04:29.624Z,11.45
2022-12-28T06:05:32.409Z,11.00
2022-12-28T06:06:35.903Z,13.23
2022-12-28T06:07:40.366Z,12.73
2022-12-28T06:08:43.352Z,13.90
2022-12-28T06:09:46.201Z,13.63
2022-12-28T06:10:47.987Z,15.63
2022-12-28T06:11:50.910Z,16.02
2022-12-28T06:12:52.752Z,13.75
2022-12-28T06:13:55.862Z,12.93
2022-12-28T06:14:58.675Z,11.95
2022-12-28T06:16:05.596Z,13.38
2022-12-28T06:17:08.470Z,13.65
2022-12-28T06:18:10.707Z,13.07
2022-12-28T06:19:14.713Z,12.52
2022-12-28T06:20:16.915Z,14.45
2022-12-28T06:21:21.948Z,13.60
2022-12-28T06:22:23.739Z,13.70
2022-12-28T06:23:27.851Z,14.45
2022-12-28T06:24:29.891Z,13.88
2022-12-28T06:25:32.687Z,14.50
2022-12-28T06:26:35.966Z,14.15
2022-12-28T06:27:38.853Z,16.75
2022-12-28T06:28:41.728Z,14.98
2022-12-28T06:29:44.454Z,15.52
2022-12-28T06:30:52.222Z,14.23
2022-12-28T06:31:56.571Z,16.63
2022-12-28T06:32:58.427Z,15.35
2022-12-28T06:34:02.316Z,17.90
2022-12-28T06:35:04.704Z,15.77
2022-12-28T06:36:19.349Z,16.80
2022-12-28T06:37:22.935Z,15.18
2022-12-28T06:38:27.137Z,15.70
2022-12-28T06:39:30.211Z,16.40
2022-12-28T06:41:02.406Z,13.95
2022-12-28T06:41:55.119Z,16.15
2022-12-28T06:42:57.223Z,16.65
2022-12-28T06:44:00.417Z,16.33
2022-12-28T06:45:02.193Z,16.23
2022-12-28T06:46:05.732Z,17.65
2022-12-28T06:47:08.630Z,16.85
2022-12-28T06:48:10.587Z,16.75
2022-12-28T06:49:13.343Z,17.35
2022-12-28T06:50:15.747Z,17.25
2022-12-28T06:51:20.060Z,17.40
2022-12-28T06:52:22.158Z,17.42
2022-12-28T06:53:25.452Z,17.52
2022-12-28T06:54:29.595Z,17.65
2022-12-28T06:55:31.363Z,16.85
2022-12-28T06:56:35.628Z,18.60
2022-12-28T06:57:37.401Z,17.17
2022-12-28T06:58:40.718Z,17.80
2022-12-28T06:59:42.534Z,18.63
2022-12-28T07:00:45.564Z,17.67
2022-12-28T07:01:47.573Z,17.42
2022-12-28T07:02:50.604Z,16.73
2022-12-28T07:03:54.277Z,17.73
2022-12-28T07:04:57.016Z,17.52
2022-12-28T07:06:00.129Z,18.48
2022-12-28T07:07:03.006Z,18.27
2022-12-28T07:08:09.185Z,18.25
2022-12-28T07:09:17.387Z,16.73
2022-12-28T07:10:20.582Z,17.65
2022-12-28T07:11:23.437Z,18.05
2022-12-28T07:12:25.203Z,18.00
2022-12-28T07:13:28.395Z,17.08
2022-12-28T07:14:32.293Z,16.08
2022-12-28T07:15:35.460Z,17.85
2022-12-28T07:17:39.335Z,17.23
2022-12-28T07:18:42.852Z,17.83
2022-12-28T07:19:44.702Z,18.40
2022-12-28T07:20:47.500Z,17.63
2022-12-28T07:21:50.817Z,17.20
2022-12-28T07:22:53.349Z,17.38
2022-12-28T07:23:56.879Z,16.63
2022-12-28T07:24:58.716Z,18.95
2022-12-28T07:26:07.438Z,19.73
2022-12-28T07:27:10.215Z,18.73
2022-12-28T07:28:12.264Z,20.73
2022-12-28T07:29:15.035Z,21.58
2022-12-28T07:30:17.878Z,20.30
2022-12-28T07:31:22.406Z,22.05
2022-12-28T07:32:24.259Z,23.13
2022-12-28T07:33:27.054Z,23.85
2022-12-28T07:34:28.983Z,23.13
2022-12-28T07:35:31.690Z,19.92
2022-12-28T07:36:33.717Z,19.98
2022-12-28T07:37:36.616Z,18.15
2022-12-28T07:38:38.465Z,18.02
2022-12-28T07:39:41.228Z,17.80
2022-12-28T07:40:43.039Z,17.08
2022-12-28T07:41:47.230Z,16.13
2022-12-28T07:42:55.379Z,14.55
2022-12-28T07:43:58.492Z,16.02
2022-12-28T07:45:01.320Z,15.88
2022-12-28T07:46:03.366Z,16.45
2022-12-28T07:47:06.244Z,15.52
2022-12-28T07:48:08.158Z,15.23
2022-12-28T07:49:10.973Z,16.88
2022-12-28T07:50:13.156Z,15.20
2022-12-28T07:51:17.392Z,15.60
2022-12-28T07:52:19.362Z,14.75
2022-12-28T07:53:22.617Z,14.88
2022-12-28T07:54:25.692Z,15.77
2022-12-28T07:55:29.807Z,14.32
2022-12-28T07:57:38.311Z,13.95
2022-12-28T07:59:45.300Z,16.40
2022-12-28T08:00:48.237Z,15.20
2022-12-28T08:01:51.836Z,14.88
2022-12-28T08:02:56.179Z,14.85
2022-12-28T08:04:00.638Z,14.88
2022-12-28T08:05:02.635Z,16.40
2022-12-28T08:06:07.144Z,15.90
2022-12-28T08:07:10.142Z,13.60
2022-12-28T08:08:12.257Z,14.18
2022-12-28T08:09:16.168Z,13.70
2022-12-28T08:10:17.988Z,14.85
2022-12-28T08:11:22.724Z,15.43
2022-12-28T08:12:25.139Z,14.65
2022-12-28T08:13:31.769Z,14.52
2022-12-28T08:14:35.227Z,13.50
2022-12-28T08:15:37.566Z,14.65
2022-12-28T08:16:41.887Z,14.18
2022-12-28T08:17:43.902Z,13.63
2022-12-28T08:18:47.509Z,13.68
2022-12-28T08:19:50.186Z,14.52
2022-12-28T08:20:53.018Z,14.55
2022-12-28T08:21:56.026Z,13.80
2022-12-28T08:22:58.044Z,14.65
2022-12-28T08:24:01.700Z,15.57
2022-12-28T08:25:03.906Z,13.65
2022-12-28T08:26:08.686Z,13.38
2022-12-28T08:27:10.684Z,13.43
2022-12-28T08:28:13.948Z,13.13
2022-12-28T08:29:19.827Z,13.02
2022-12-28T08:30:22.820Z,12.98
2022-12-28T08:31:26.676Z,12.57
2022-12-28T08:32:29.533Z,13.10
2022-12-28T08:33:31.441Z,14.95
2022-12-28T08:34:34.351Z,12.48
2022-12-28T08:35:36.587Z,13.23
2022-12-28T08:36:39.572Z,13.52
2022-12-28T08:37:41.722Z,12.07
2022-12-28T08:38:46.035Z,12.07
2022-12-28T08:39:49.145Z,12.93
2022-12-28T08:40:57.554Z,12.07
2022-12-28T08:42:01.708Z,12.43
2022-12-28T08:43:03.877Z,12.27
2022-12-28T08:44:07.504Z,12.77
2022-12-28T08:45:12.563Z,11.98
2022-12-28T08:46:16.633Z,12.10
2022-12-28T08:47:20.118Z,12.65
2022-12-28T08:48:22.169Z,12.30
2022-12-28T08:49:25.028Z,13.10
2022-12-28T08:50:31.556Z,12.02
2022-12-28T08:51:37.643Z,13.02
2022-12-28T08:52:39.614Z,11.45
2022-12-28T08:53:42.801Z,11.63
2022-12-28T08:54:45.603Z,10.65
2022-12-28T08:55:47.625Z,10.18
2022-12-28T08:56:50.872Z,11.32
2022-12-28T08:57:52.727Z,11.88
2022-12-28T08:58:56.216Z,11.63
2022-12-28T08:59:58.082Z,12.20
2022-12-28T09:01:08.390Z,11.15
2022-12-28T09:02:13.800Z,11.30
2022-12-28T09:03:16.182Z,11.57
2022-12-28T09:04:22.782Z,11.63
2022-12-28T09:05:24.690Z,11.57
2022-12-28T09:06:31.410Z,10.65
2022-12-28T09:07:33.380Z,10.45
2022-12-28T09:08:36.377Z,8.63
2022-12-28T09:09:38.661Z,9.43
2022-12-28T09:10:41.795Z,8.18
2022-12-28T09:11:47.631Z,8.80
2022-12-28T09:12:50.935Z,9.02
2022-12-28T09:13:53.000Z,8.27
2022-12-28T09:14:55.912Z,9.02
2022-12-28T09:15:58.570Z,8.18
2022-12-28T09:17:03.163Z,8.02
2022-12-28T09:18:07.416Z,7.88
2022-12-28T09:19:14.474Z,7.68
2022-12-28T09:20:18.009Z,7.15
2022-12-28T09:21:21.118Z,7.72
2022-12-28T09:22:24.056Z,7.03
2022-12-28T09:23:28.859Z,6.63
2022-12-28T09:24:31.828Z,6.72
2022-12-28T09:25:34.981Z,6.88
2022-12-28T09:26:39.131Z,8.05
2022-12-28T09:27:41.246Z,7.35
2022-12-28T09:28:46.037Z,7.63
2022-12-28T09:29:49.604Z,7.22
2022-12-28T09:30:51.688Z,10.63
2022-12-28T09:31:54.595Z,7.50
2022-12-28T09:33:12.719Z,7.82
2022-12-28T09:35:38.466Z,9.00
2022-12-28T09:36:43.307Z,7.93
2022-12-28T09:37:46.198Z,8.35
2022-12-28T09:38:49.039Z,9.65
2022-12-28T09:39:54.566Z,9.30
2022-12-28T09:40:58.647Z,9.18
2022-12-28T09:42:04.299Z,7.82
2022-12-28T09:43:06.281Z,8.35
2022-12-28T09:44:21.095Z,9.93
2022-12-28T09:45:26.870Z,11.50
2022-12-28T09:46:29.947Z,7.78
2022-12-28T09:47:38.492Z,8.13
2022-12-28T09:48:42.327Z,8.32
2022-12-28T09:49:48.637Z,8.00
2022-12-28T09:50:52.037Z,8.75
2022-12-28T09:51:57.586Z,8.60
2022-12-28T09:53:20.891Z,8.98
2022-12-28T09:54:24.245Z,8.80
2022-12-28T09:55:27.112Z,7.93
2022-12-28T09:56:34.342Z,8.50
2022-12-28T09:57:39.277Z,8.95
2022-12-28T09:58:45.152Z,9.60
2022-12-28T09:59:51.016Z,9.95
2022-12-28T10:00:54.816Z,9.57
2022-12-28T10:02:00.695Z,9.73
2022-12-28T10:03:05.606Z,10.45
2022-12-28T10:04:12.683Z,10.38
2022-12-28T10:05:15.955Z,10.07
2022-12-28T10:06:23.415Z,11.70
2022-12-28T10:07:25.435Z,10.10
2022-12-28T10:08:29.001Z,9.60
2022-12-28T10:09:34.864Z,11.57
2022-12-28T10:10:36.770Z,10.15
2022-12-28T10:11:42.813Z,9.60
2022-12-28T10:12:45.762Z,10.20
2022-12-28T10:13:55.140Z,11.30
2022-12-28T10:15:00.042Z,9.23
2022-12-28T10:16:04.752Z,9.68
2022-12-28T10:17:09.451Z,10.32
2022-12-28T10:18:12.875Z,8.77
2022-12-28T10:19:20.009Z,9.55
2022-12-28T10:20:22.609Z,9.63
2022-12-28T10:21:32.718Z,9.90
2022-12-28T10:22:38.578Z,8.88
2022-12-28T10:23:56.694Z,8.88
2022-12-28T10:25:04.105Z,9.65
2022-12-28T10:26:06.583Z,9.57
2022-12-28T10:27:14.670Z,9.63
2022-12-28T10:28:17.088Z,10.35
2022-12-28T10:29:21.747Z,9.85
2022-12-28T10:30:27.309Z,10.75
2022-12-28T10:31:59.382Z,10.18
2022-12-28T10:33:03.814Z,11.00
2022-12-28T10:34:14.427Z,11.85
2022-12-28T10:35:27.050Z,11.30
2022-12-28T10:36:35.123Z,11.32
2022-12-28T10:37:44.488Z,12.75
2022-12-28T10:38:52.095Z,12.73
2022-12-28T10:39:56.809Z,11.00
2022-12-28T10:41:01.177Z,11.85
2022-12-28T10:42:05.123Z,10.35
2022-12-28T10:43:19.343Z,11.23
2022-12-28T10:44:39.496Z,9.88
2022-12-28T10:45:48.020Z,10.00
2022-12-28T10:46:52.215Z,8.63
2022-12-28T10:47:57.088Z,10.00
2022-12-28T10:49:01.200Z,8.75
2022-12-28T10:51:31.157Z,8.48
2022-12-28T10:52:33.015Z,7.68
2022-12-28T10:53:43.448Z,8.63
2022-12-28T10:54:50.266Z,8.57
2022-12-28T10:56:21.298Z,7.35
2022-12-28T10:57:30.723Z,9.13
2022-12-28T10:58:34.451Z,8.52
2022-12-28T10:59:39.646Z,8.15
2022-12-28T11:00:44.563Z,7.80
2022-12-28T11:01:51.906Z,8.85
2022-12-28T11:02:55.184Z,8.52
2022-12-28T11:04:05.633Z,8.60
2022-12-28T11:05:20.538Z,9.10
2022-12-28T11:06:27.365Z,8.80
2022-12-28T11:07:35.093Z,8.13
2022-12-28T11:08:37.342Z,8.10
2022-12-28T11:09:40.937Z,9.63
2022-12-28T11:10:42.956Z,8.48
2022-12-28T11:11:47.352Z,8.40
2022-12-28T11:12:50.210Z,9.13
2022-12-28T11:13:57.118Z,8.48
2022-12-28T11:14:59.295Z,7.80
2022-12-28T11:16:02.274Z,8.25
2022-12-28T11:17:16.219Z,7.95
2022-12-28T11:18:19.095Z,8.48
2022-12-28T11:19:22.989Z,7.40
2022-12-28T11:20:29.920Z,8.05
2022-12-28T11:21:33.920Z,7.72
2022-12-28T11:22:38.585Z,8.07
2022-12-28T11:23:40.627Z,7.00
2022-12-28T11:24:43.568Z,6.90
2022-12-28T11:25:45.574Z,5.95
2022-12-28T11:26:50.446Z,6.60
2022-12-28T11:27:52.475Z,7.60
2022-12-28T11:28:56.207Z,7.40
2022-12-28T11:29:58.513Z,8.15
2022-12-28T11:31:04.243Z,8.48
2022-12-28T11:32:11.929Z,7.63
2022-12-28T11:33:26.359Z,7.93
2022-12-28T11:34:30.487Z,7.68
2022-12-28T11:35:34.909Z,7.35
2022-12-28T11:36:43.352Z,7.43
2022-12-28T11:37:54.442Z,8.80
2022-12-28T11:38:57.348Z,7.28
2022-12-28T11:39:59.202Z,7.43
2022-12-28T11:41:01.983Z,7.07
2022-12-28T11:42:38.443Z,7.45
2022-12-28T11:43:40.187Z,5.85
2022-12-28T11:44:51.380Z,6.38
2022-12-28T11:45:54.470Z,9.18
2022-12-28T11:47:01.839Z,5.45
2022-12-28T11:48:37.373Z,5.63
2022-12-28T11:49:40.700Z,4.93
2022-12-28T11:50:53.267Z,5.80
2022-12-28T11:52:34.065Z,6.72
2022-12-28T11:53:53.793Z,5.45
2022-12-28T11:54:57.620Z,4.75
2022-12-28T11:56:05.416Z,5.65
2022-12-28T11:57:11.171Z,4.80
2022-12-28T11:58:49.689Z,5.15
2022-12-28T11:59:52.866Z,5.45
2022-12-28T12:00:54.885Z,5.75
2022-12-28T12:01:59.006Z,6.13
2022-12-28T12:03:01.874Z,6.07
2022-12-28T12:04:11.736Z,5.85
2022-12-28T12:05:56.441Z,5.35
2022-12-28T12:07:15.746Z,5.95
2022-12-28T12:08:40.943Z,4.82
2022-12-28T12:09:46.590Z,5.38
2022-12-28T12:10:50.166Z,5.80
2022-12-28T12:11:53.178Z,6.78
2022-12-28T12:12:56.713Z,5.28
2022-12-28T12:14:00.709Z,5.53
2022-12-28T12:15:09.170Z,5.20
2022-12-28T12:16:24.329Z,5.85
2022-12-28T12:17:36.815Z,5.65
2022-12-28T12:18:46.393Z,4.72
2022-12-28T12:19:50.640Z,4.70
2022-12-28T12:20:55.849Z,5.25
2022-12-28T12:22:02.708Z,5.53
2022-12-28T12:23:07.760Z,7.05
2022-12-28T12:27:36.589Z,4.77
2022-12-28T12:28:41.251Z,4.75
2022-12-28T12:29:46.524Z,6.13
2022-12-28T12:30:49.034Z,5.53
2022-12-28T12:31:57.527Z,5.68
2022-12-28T12:33:03.871Z,5.03
2022-12-28T12:34:13.310Z,5.18
2022-12-28T12:35:23.265Z,4.38
2022-12-28T12:36:47.937Z,4.53
2022-12-28T12:37:55.015Z,4.30
2022-12-28T12:39:12.610Z,4.88
2022-12-28T12:40:29.564Z,4.68
2022-12-28T12:41:38.604Z,4.60
2022-12-28T12:42:56.975Z,6.55
2022-12-28T12:44:10.908Z,4.07
2022-12-28T12:45:23.336Z,3.40
2022-12-28T12:46:41.806Z,3.92
2022-12-28T12:48:17.562Z,3.42
2022-12-28T12:49:34.983Z,4.13
2022-12-28T12:50:55.107Z,3.70
2022-12-28T12:52:03.208Z,3.38
2022-12-28T12:53:10.891Z,4.80
2022-12-28T12:54:27.339Z,3.70
2022-12-28T12:55:48.497Z,3.83
2022-12-28T12:56:55.192Z,3.40
2022-12-28T12:58:03.074Z,5.22
2022-12-28T12:59:20.490Z,3.20
2022-12-28T13:00:24.134Z,2.88
2022-12-28T13:01:32.884Z,4.75
2022-12-28T13:02:52.059Z,3.42
2022-12-28T13:03:56.600Z,3.60
2022-12-28T13:05:02.296Z,3.40
2022-12-28T13:06:06.287Z,3.20
2022-12-28T13:07:17.087Z,2.83
2022-12-28T13:08:24.178Z,3.42
2022-12-28T13:09:28.424Z,3.20
2022-12-28T13:10:35.145Z,3.60
2022-12-28T13:11:38.754Z,4.45
2022-12-28T13:12:40.995Z,5.90
2022-12-28T13:13:48.258Z,3.80
2022-12-28T13:14:54.092Z,3.42
2022-12-28T13:15:59.896Z,4.28
2022-12-28T13:17:02.723Z,4.18
2022-12-28T13:19:32.784Z,4.03
2022-12-28T13:20:34.616Z,4.43
2022-12-28T13:21:42.107Z,6.55
2022-12-28T13:22:45.852Z,2.80
2022-12-28T13:23:50.193Z,3.08
2022-12-28T13:24:52.022Z,2.92
2022-12-28T13:25:56.360Z,2.65
2022-12-28T13:27:00.603Z,3.28
2022-12-28T13:28:03.621Z,3.72
2022-12-28T13:29:10.974Z,4.00
2022-12-28T13:30:18.389Z,3.28
2022-12-28T13:31:22.888Z,2.80
2022-12-28T13:32:27.804Z,3.63
2022-12-28T13:33:33.401Z,3.47
2022-12-28T13:34:37.587Z,3.22
2022-12-28T13:35:39.658Z,3.05
2022-12-28T13:36:48.953Z,3.30
2022-12-28T13:38:02.798Z,5.13
2022-12-28T13:39:12.655Z,2.70
2022-12-28T13:40:17.578Z,2.70
2022-12-28T13:41:22.930Z,2.80
2022-12-28T13:42:29.257Z,2.85
2022-12-28T13:44:09.535Z,2.97
2022-12-28T13:45:15.628Z,2.60
2022-12-28T13:46:19.347Z,2.85
2022-12-28T13:47:25.496Z,3.40
2022-12-28T13:48:27.822Z,3.55
2022-12-28T13:49:33.400Z,3.40
2022-12-28T13:50:37.807Z,3.00
2022-12-28T13:51:41.581Z,3.10
2022-12-28T13:52:46.805Z,2.85
2022-12-28T13:53:50.828Z,3.30
2022-12-28T13:54:57.564Z,3.05
2022-12-28T13:56:00.973Z,2.80
2022-12-28T13:57:44.176Z,2.97
2022-12-28T13:58:30.024Z,3.03
2022-12-28T13:59:35.607Z,4.90
2022-12-28T14:00:40.252Z,3.95
2022-12-28T14:01:44.861Z,3.90
2022-12-28T14:02:48.487Z,3.50
2022-12-28T14:03:51.817Z,3.53
2022-12-28T14:04:55.350Z,3.67
2022-12-28T14:06:00.041Z,4.43
2022-12-28T14:07:02.867Z,4.00
2022-12-28T14:08:06.072Z,3.80
2022-12-28T14:09:11.804Z,4.20
2022-12-28T14:10:14.607Z,4.00
2022-12-28T14:11:17.979Z,3.97
2022-12-28T14:12:20.193Z,3.60
2022-12-28T14:13:23.280Z,3.95
2022-12-28T14:14:25.223Z,3.58
2022-12-28T14:15:28.785Z,3.58
2022-12-28T14:16:32.147Z,3.28
2022-12-28T14:17:36.199Z,4.15
2022-12-28T14:18:38.680Z,4.03
2022-12-28T14:19:42.315Z,6.90
2022-12-28T14:20:49.182Z,4.10
2022-12-28T14:21:52.044Z,5.30
2022-12-28T14:22:54.876Z,4.65
2022-12-28T14:24:02.817Z,5.10
2022-12-28T14:25:09.001Z,5.22
2022-12-28T14:26:19.833Z,4.78
2022-12-28T14:27:43.478Z,5.00
2022-12-28T14:28:47.588Z,5.07
2022-12-28T14:30:23.149Z,5.00
2022-12-28T14:31:41.385Z,5.43
2022-12-28T14:33:08.502Z,5.40
2022-12-28T14:34:31.873Z,6.32
2022-12-28T14:35:56.383Z,4.88
2022-12-28T14:37:25.103Z,4.60